Time;durP1;ratioP1;P1;durP2;ratioP2;P2;SDS_P1;SDS_P2;PMS_P1;PMS_P2;Temp;Humidity;BMP_temperature;BMP_pressure;BME280_temperature;BME280_humidity;BME280_pressure;Samples;Min_cycle;Max_cycle;Signal;HPM_P1;HPM_P2
2022/05/08 00:01:05;;;;;;;28.50;18.33;;;;;;;;;;5052668;28;20025;-78
2022/05/08 00:03:31;;;;;;;27.92;17.25;;;;;;;;;;5050849;28;20082;-78
2022/05/08 00:05:59;;;;;;;23.83;17.55;;;;;;;;;;5052430;28;20025;-78
2022/05/08 00:08:28;;;;;;;27.10;19.00;;;;;;;;;;5052433;28;20028;-78
2022/05/08 00:10:54;;;;;;;27.50;17.98;;;;;;;;;;5052620;28;20024;-77
2022/05/08 00:13:19;;;;;;;27.35;16.88;;;;;;;;;;5052684;28;20031;-78
2022/05/08 00:15:45;;;;;;;29.27;16.02;;;;;;;;;;5052288;28;20453;-80
2022/05/08 00:18:10;;;;;;;24.90;16.80;;;;;;;;;;5051310;28;20127;-77
2022/05/08 00:20:36;;;;;;;27.67;16.42;;;;;;;;;;5050043;28;20220;-76
2022/05/08 00:23:01;;;;;;;23.55;15.68;;;;;;;;;;5050446;28;20472;-78
2022/05/08 00:25:27;;;;;;;23.67;15.18;;;;;;;;;;5049936;28;20253;-78
2022/05/08 00:27:53;;;;;;;23.65;15.60;;;;;;;;;;5051700;28;20043;-77
2022/05/08 00:30:18;;;;;;;27.75;15.43;;;;;;;;;;5049903;28;20024;-79
2022/05/08 00:32:45;;;;;;;26.20;17.42;;;;;;;;;;5051159;28;20037;-79
2022/05/08 00:35:11;;;;;;;24.63;17.17;;;;;;;;;;5051725;28;20500;-76
2022/05/08 00:37:38;;;;;;;24.45;15.13;;;;;;;;;;5050852;28;20025;-76
2022/05/08 00:40:04;;;;;;;26.83;15.57;;;;;;;;;;5051106;28;20036;-76
2022/05/08 00:42:30;;;;;;;25.52;15.98;;;;;;;;;;5049714;28;20021;-76
2022/05/08 00:44:57;;;;;;;23.75;16.38;;;;;;;;;;5051157;28;20024;-76
2022/05/08 00:47:22;;;;;;;26.92;17.40;;;;;;;;;;5051911;28;20021;-77
2022/05/08 00:49:48;;;;;;;25.80;16.77;;;;;;;;;;5053133;28;20039;-77
2022/05/08 00:52:16;;;;;;;19.90;14.82;;;;;;;;;;5051083;28;20024;-77
2022/05/08 00:54:42;;;;;;;24.67;16.05;;;;;;;;;;5033718;28;20377;-78
2022/05/08 00:57:09;;;;;;;23.50;16.15;;;;;;;;;;5051601;28;20025;-76
2022/05/08 00:59:35;;;;;;;22.30;14.65;;;;;;;;;;5050329;28;20024;-78
2022/05/08 01:02:00;;;;;;;23.80;15.50;;;;;;;;;;5033537;28;20541;-77
2022/05/08 01:04:26;;;;;;;25.40;15.95;;;;;;;;;;5050116;28;20025;-76
2022/05/08 01:06:51;;;;;;;28.38;15.23;;;;;;;;;;5051492;28;20032;-79
2022/05/08 01:09:18;;;;;;;22.08;14.65;;;;;;;;;;5051257;28;20143;-77
2022/05/08 01:14:37;;;;;;;23.88;15.52;;;;;;;;;;5051731;28;20040;-77
2022/05/08 01:17:02;;;;;;;25.63;15.98;;;;;;;;;;5051330;28;20025;-76
2022/05/08 01:19:28;;;;;;;25.25;15.70;;;;;;;;;;5033346;28;20036;-76
2022/05/08 01:21:53;;;;;;;23.92;16.13;;;;;;;;;;5051131;28;20546;-78
2022/05/08 01:24:22;;;;;;;20.63;14.77;;;;;;;;;;5051367;28;20021;-78
2022/05/08 01:26:47;;;;;;;24.88;15.60;;;;;;;;;;5050210;28;20029;-77
2022/05/08 01:29:13;;;;;;;26.85;15.35;;;;;;;;;;5050647;28;20420;-77
2022/05/08 01:31:39;;;;;;;22.55;14.75;;;;;;;;;;5051124;28;20021;-76
2022/05/08 01:34:04;;;;;;;25.42;15.73;;;;;;;;;;5053503;28;20037;-76
2022/05/08 01:36:31;;;;;;;22.90;15.80;;;;;;;;;;5053456;28;20020;-76
2022/05/08 01:38:57;;;;;;;28.55;16.08;;;;;;;;;;5054741;28;20388;-79
2022/05/08 01:41:23;;;;;;;24.83;15.95;;;;;;;;;;5054473;28;20358;-79
2022/05/08 01:43:49;;;;;;;23.57;15.53;;;;;;;;;;5037422;28;20024;-76
2022/05/08 01:46:14;;;;;;;28.15;15.73;;;;;;;;;;5053560;28;20036;-77
2022/05/08 01:48:41;;;;;;;30.83;18.10;;;;;;;;;;5054693;28;20028;-77
2022/05/08 01:51:07;;;;;;;30.35;16.33;;;;;;;;;;5054213;28;20033;-77
2022/05/08 01:53:34;;;;;;;20.33;14.67;;;;;;;;;;5036828;28;20035;-77
2022/05/08 01:56:02;;;;;;;30.23;17.75;;;;;;;;;;5054998;28;20025;-77
2022/05/08 01:58:29;;;;;;;27.50;16.45;;;;;;;;;;5036728;28;20039;-76
2022/05/08 02:00:56;;;;;;;22.93;15.93;;;;;;;;;;5036582;28;20062;-77
2022/05/08 02:03:24;;;;;;;28.27;16.43;;;;;;;;;;5052875;28;20025;-77
2022/05/08 02:05:50;;;;;;;23.40;14.90;;;;;;;;;;5037094;28;20044;-75
2022/05/08 02:08:16;;;;;;;28.43;15.43;;;;;;;;;;5054378;28;20029;-76
2022/05/08 02:10:42;;;;;;;21.53;15.10;;;;;;;;;;5054270;28;20401;-76
2022/05/08 02:13:08;;;;;;;25.58;16.83;;;;;;;;;;5054273;28;20021;-77
2022/05/08 02:15:34;;;;;;;25.93;15.50;;;;;;;;;;5037060;28;20063;-76
2022/05/08 02:18:04;;;;;;;22.90;15.90;;;;;;;;;;5036151;28;20033;-76
2022/05/08 02:20:30;;;;;;;33.92;16.55;;;;;;;;;;5053972;28;20029;-78
2022/05/08 02:22:56;;;;;;;24.10;16.00;;;;;;;;;;5054168;28;20021;-78
2022/05/08 02:25:21;;;;;;;23.20;15.47;;;;;;;;;;5054149;28;20100;-77
2022/05/08 02:27:51;;;;;;;22.57;15.73;;;;;;;;;;5053707;28;20029;-78
2022/05/08 02:30:22;;;;;;;22.20;15.53;;;;;;;;;;5052746;28;20095;-78
2022/05/08 02:32:51;;;;;;;24.50;15.77;;;;;;;;;;5035932;28;20542;-78
2022/05/08 02:35:17;;;;;;;24.50;15.57;;;;;;;;;;5054358;28;20025;-79
2022/05/08 02:37:44;;;;;;;23.87;15.23;;;;;;;;;;5053684;28;20081;-78
2022/05/08 02:40:10;;;;;;;20.52;14.80;;;;;;;;;;5052236;28;20515;-77
2022/05/08 02:42:36;;;;;;;23.77;14.80;;;;;;;;;;5053101;28;20025;-78
2022/05/08 02:45:05;;;;;;;26.07;16.10;;;;;;;;;;5052611;28;20376;-77
2022/05/08 02:47:32;;;;;;;22.00;15.63;;;;;;;;;;5052153;28;20028;-77
2022/05/08 02:49:58;;;;;;;28.37;15.67;;;;;;;;;;5053580;28;20362;-76
2022/05/08 02:52:25;;;;;;;21.83;13.77;;;;;;;;;;5052555;28;20086;-77
2022/05/08 02:54:51;;;;;;;22.70;15.40;;;;;;;;;;5053509;28;20032;-75
2022/05/08 03:00:08;;;;;;;23.00;14.93;;;;;;;;;;5053148;28;20090;-78
2022/05/08 03:02:35;;;;;;;22.70;15.67;;;;;;;;;;5053242;28;20412;-77
2022/05/08 03:05:02;;;;;;;25.17;15.13;;;;;;;;;;5053294;28;20384;-78
2022/05/08 03:07:27;;;;;;;23.07;15.43;;;;;;;;;;5053259;28;20538;-80
2022/05/08 03:09:53;;;;;;;21.90;14.60;;;;;;;;;;5051785;28;20024;-78
2022/05/08 03:12:19;;;;;;;27.03;14.93;;;;;;;;;;5053040;28;20074;-78
2022/05/08 03:14:44;;;;;;;24.03;16.00;;;;;;;;;;5052904;28;20036;-78
2022/05/08 03:17:10;;;;;;;24.70;15.30;;;;;;;;;;5052440;28;20061;-78
2022/05/08 03:19:36;;;;;;;19.63;13.60;;;;;;;;;;5052390;28;20461;-76
2022/05/08 03:22:02;;;;;;;24.00;15.30;;;;;;;;;;5067546;28;20128;-78
2022/05/08 03:24:29;;;;;;;21.97;14.13;;;;;;;;;;5067617;28;20564;-79
2022/05/08 03:26:55;;;;;;;21.33;14.57;;;;;;;;;;5067929;28;20476;-77
2022/05/08 03:29:21;;;;;;;25.80;15.63;;;;;;;;;;5052884;28;20427;-77
2022/05/08 03:31:46;;;;;;;21.50;14.60;;;;;;;;;;5050929;28;20108;-76
2022/05/08 03:34:12;;;;;;;23.80;15.70;;;;;;;;;;5070413;28;20067;-77
2022/05/08 03:36:38;;;;;;;22.23;14.43;;;;;;;;;;5054469;28;20040;-78
2022/05/08 03:39:03;;;;;;;26.17;15.13;;;;;;;;;;5071932;28;20050;-78
2022/05/08 03:41:29;;;;;;;22.63;14.07;;;;;;;;;;5071947;28;20043;-78
2022/05/08 03:43:55;;;;;;;25.13;15.67;;;;;;;;;;5073012;28;20044;-78
2022/05/08 03:46:21;;;;;;;27.73;15.77;;;;;;;;;;5070600;28;20103;-77
2022/05/08 03:48:48;;;;;;;25.17;15.17;;;;;;;;;;5072120;28;20079;-77
2022/05/08 03:51:14;;;;;;;25.87;15.30;;;;;;;;;;5072133;28;20039;-77
2022/05/08 03:53:39;;;;;;;22.67;14.10;;;;;;;;;;5072214;28;20020;-76
2022/05/08 03:56:05;;;;;;;21.07;14.00;;;;;;;;;;5071090;28;20020;-78
2022/05/08 03:58:32;;;;;;;22.30;15.33;;;;;;;;;;5069961;28;20028;-77
2022/05/08 04:00:59;;;;;;;22.50;14.57;;;;;;;;;;5053796;28;20109;-77
2022/05/08 04:03:25;;;;;;;22.70;14.07;;;;;;;;;;5071227;28;20023;-78
2022/05/08 04:05:51;;;;;;;26.17;14.90;;;;;;;;;;5070236;28;20028;-75
2022/05/08 04:08:16;;;;;;;21.53;13.57;;;;;;;;;;5072208;28;20052;-77
2022/05/08 04:10:42;;;;;;;21.17;14.43;;;;;;;;;;5071719;28;20027;-78
2022/05/08 04:13:07;;;;;;;20.47;14.17;;;;;;;;;;5070382;28;20034;-79
2022/05/08 04:18:17;;;;;;;19.00;13.80;;;;;;;;;;5052039;28;20495;-78
2022/05/08 04:20:42;;;;;;;18.60;14.03;;;;;;;;;;5049728;28;20025;-77
2022/05/08 04:25:53;;;;;;;24.00;13.93;;;;;;;;;;5051407;28;20032;-77
2022/05/08 04:28:21;;;;;;;20.87;14.30;;;;;;;;;;5050100;28;20779;-79
2022/05/08 04:30:48;;;;;;;21.23;15.00;;;;;;;;;;5051578;28;20071;-78
2022/05/08 04:33:14;;;;;;;22.30;13.67;;;;;;;;;;5050023;28;20049;-76
2022/05/08 04:35:39;;;;;;;21.17;14.17;;;;;;;;;;5050120;28;20448;-77
2022/05/08 04:38:05;;;;;;;23.27;13.80;;;;;;;;;;5051469;28;20430;-76
2022/05/08 04:40:30;;;;;;;22.90;14.63;;;;;;;;;;5050396;28;20119;-75
2022/05/08 04:42:57;;;;;;;19.03;13.40;;;;;;;;;;5050076;28;20031;-78
2022/05/08 04:45:22;;;;;;;21.57;13.90;;;;;;;;;;5052279;28;20021;-78
2022/05/08 04:47:48;;;;;;;20.97;14.77;;;;;;;;;;5049614;28;20440;-77
2022/05/08 04:50:13;;;;;;;22.17;14.80;;;;;;;;;;5050282;28;20033;-78
2022/05/08 04:52:39;;;;;;;22.40;14.87;;;;;;;;;;5051309;28;20028;-77
2022/05/08 04:55:05;;;;;;;18.87;13.67;;;;;;;;;;5051747;28;20063;-77
2022/05/08 04:57:30;;;;;;;23.47;15.20;;;;;;;;;;5049583;28;20029;-76
2022/05/08 04:59:57;;;;;;;21.60;13.70;;;;;;;;;;5049716;28;20388;-78
2022/05/08 05:02:23;;;;;;;20.00;12.83;;;;;;;;;;5050945;28;20025;-77
2022/05/08 05:04:48;;;;;;;21.33;13.37;;;;;;;;;;5050986;28;20329;-78
2022/05/08 05:07:14;;;;;;;24.33;12.83;;;;;;;;;;5048560;28;20025;-76
2022/05/08 05:09:39;;;;;;;17.40;13.50;;;;;;;;;;5049624;28;20039;-75
2022/05/08 05:12:05;;;;;;;20.63;14.03;;;;;;;;;;5050348;28;20025;-75
2022/05/08 05:14:32;;;;;;;20.13;12.60;;;;;;;;;;5049776;28;20358;-78
2022/05/08 05:17:00;;;;;;;23.33;13.80;;;;;;;;;;5050937;28;20039;-78
2022/05/08 05:19:26;;;;;;;21.67;13.43;;;;;;;;;;5049861;28;20021;-76
2022/05/08 05:21:51;;;;;;;23.07;13.10;;;;;;;;;;5051647;28;20027;-77
2022/05/08 05:24:17;;;;;;;16.40;12.27;;;;;;;;;;5049909;28;20445;-77
2022/05/08 05:26:42;;;;;;;20.00;12.53;;;;;;;;;;5049123;28;20029;-77
2022/05/08 05:29:08;;;;;;;18.60;12.23;;;;;;;;;;5049583;28;20021;-78
2022/05/08 05:31:34;;;;;;;18.60;12.47;;;;;;;;;;5050847;28;20084;-76
2022/05/08 05:33:59;;;;;;;17.95;12.57;;;;;;;;;;5048860;28;20136;-76
2022/05/08 05:36:25;;;;;;;19.77;12.57;;;;;;;;;;5050401;28;20036;-76
2022/05/08 05:38:50;;;;;;;19.10;13.77;;;;;;;;;;5049503;28;20029;-79
2022/05/08 05:41:16;;;;;;;17.63;13.15;;;;;;;;;;5050388;28;20021;-77
2022/05/08 05:43:42;;;;;;;16.95;12.57;;;;;;;;;;5049244;28;20028;-78
2022/05/08 05:48:51;;;;;;;20.88;12.05;;;;;;;;;;5050990;28;20409;-77
2022/05/08 05:51:17;;;;;;;21.17;14.20;;;;;;;;;;5048955;28;20025;-77
2022/05/08 05:53:42;;;;;;;21.27;13.65;;;;;;;;;;5050482;28;20076;-77
2022/05/08 05:56:09;;;;;;;19.25;13.13;;;;;;;;;;5049180;28;20036;-78
2022/05/08 05:58:35;;;;;;;17.67;13.27;;;;;;;;;;5048628;28;20118;-77
2022/05/08 06:01:01;;;;;;;22.55;13.20;;;;;;;;;;5050100;28;20060;-77
2022/05/08 06:03:26;;;;;;;16.98;12.10;;;;;;;;;;5050544;28;20501;-78
2022/05/08 06:05:52;;;;;;;22.83;12.75;;;;;;;;;;5050410;28;20035;-77
2022/05/08 06:08:17;;;;;;;19.33;13.88;;;;;;;;;;5050619;28;20025;-76
2022/05/08 06:10:43;;;;;;;22.20;13.40;;;;;;;;;;5051086;28;20098;-78
2022/05/08 06:13:10;;;;;;;17.58;12.85;;;;;;;;;;5051547;28;20142;-76
2022/05/08 06:15:35;;;;;;;19.38;12.90;;;;;;;;;;5050855;28;20029;-78
2022/05/08 06:18:01;;;;;;;16.80;13.02;;;;;;;;;;5049998;28;20481;-77
2022/05/08 06:20:26;;;;;;;16.42;12.35;;;;;;;;;;5052770;28;20017;-77
2022/05/08 06:22:54;;;;;;;17.33;13.18;;;;;;;;;;5053289;28;20492;-79
2022/05/08 06:25:20;;;;;;;15.48;11.73;;;;;;;;;;5054767;28;20025;-76
2022/05/08 06:27:45;;;;;;;19.08;12.93;;;;;;;;;;5052648;28;20044;-77
2022/05/08 06:30:11;;;;;;;24.20;13.30;;;;;;;;;;5052732;28;20391;-77
2022/05/08 06:32:37;;;;;;;15.55;11.98;;;;;;;;;;5053083;28;20060;-80
2022/05/08 06:35:03;;;;;;;20.02;12.40;;;;;;;;;;5052054;28;20109;-78
2022/05/08 06:37:28;;;;;;;16.98;13.43;;;;;;;;;;5052699;28;20452;-76
2022/05/08 06:39:54;;;;;;;18.63;12.85;;;;;;;;;;5052517;28;20032;-77
2022/05/08 06:42:19;;;;;;;18.75;12.13;;;;;;;;;;5053232;28;20108;-77
2022/05/08 06:44:45;;;;;;;18.48;13.13;;;;;;;;;;5052490;28;20029;-76
2022/05/08 06:47:11;;;;;;;18.98;12.63;;;;;;;;;;5052718;28;20389;-75
2022/05/08 06:49:36;;;;;;;17.27;12.18;;;;;;;;;;5054074;28;20021;-79
2022/05/08 06:52:02;;;;;;;19.75;12.48;;;;;;;;;;5053268;28;20068;-78
2022/05/08 06:54:28;;;;;;;18.48;14.05;;;;;;;;;;5053354;28;20025;-78
2022/05/08 06:56:55;;;;;;;19.60;11.75;;;;;;;;;;5051931;28;20456;-78
2022/05/08 07:02:07;;;;;;;16.50;12.25;;;;;;;;;;5053755;28;20040;-78
2022/05/08 07:04:33;;;;;;;19.65;12.15;;;;;;;;;;5053484;28;20025;-78
2022/05/08 07:06:59;;;;;;;19.30;11.90;;;;;;;;;;5053126;28;20032;-78
2022/05/08 07:09:24;;;;;;;18.65;13.00;;;;;;;;;;5051739;28;20039;-78
2022/05/08 07:11:50;;;;;;;12.85;11.23;;;;;;;;;;5051391;28;20029;-78
2022/05/08 07:14:16;;;;;;;16.60;11.50;;;;;;;;;;5051538;28;20180;-78
2022/05/08 07:16:42;;;;;;;16.33;11.15;;;;;;;;;;5051591;28;20028;-77
2022/05/08 07:19:08;;;;;;;17.65;10.60;;;;;;;;;;5052015;28;20449;-79
2022/05/08 07:21:34;;;;;;;20.00;12.13;;;;;;;;;;5045924;28;20063;-78
2022/05/08 07:23:59;;;;;;;16.45;11.82;;;;;;;;;;5053186;28;20075;-79
2022/05/08 07:26:28;;;;;;;16.73;12.48;;;;;;;;;;5053637;28;20078;-77
2022/05/08 07:28:56;;;;;;;16.83;12.45;;;;;;;;;;5052032;28;20040;-76
2022/05/08 07:31:24;;;;;;;18.30;12.95;;;;;;;;;;5052528;28;20033;-79
2022/05/08 07:36:35;;;;;;;19.33;12.20;;;;;;;;;;5038211;28;20036;-77
2022/05/08 07:39:01;;;;;;;20.30;12.90;;;;;;;;;;5052800;28;20326;-77
2022/05/08 07:41:27;;;;;;;19.30;14.35;;;;;;;;;;5051334;28;20503;-77
2022/05/08 07:43:53;;;;;;;15.65;11.80;;;;;;;;;;5052545;28;20576;-77
2022/05/08 07:46:19;;;;;;;22.00;12.52;;;;;;;;;;5052786;28;20038;-78
2022/05/08 07:48:45;;;;;;;18.52;12.63;;;;;;;;;;5052498;28;20036;-77
2022/05/08 07:51:11;;;;;;;21.80;13.20;;;;;;;;;;5052727;28;20078;-78
2022/05/08 07:53:36;;;;;;;17.13;12.38;;;;;;;;;;5051856;28;20025;-78
2022/05/08 07:56:02;;;;;;;18.90;12.32;;;;;;;;;;5051697;28;20024;-78
2022/05/08 07:58:31;;;;;;;18.60;11.95;;;;;;;;;;5052170;28;20393;-78
2022/05/08 08:00:57;;;;;;;18.27;13.45;;;;;;;;;;5052269;28;20027;-78
2022/05/08 08:03:33;;;;;;;18.98;12.88;;;;;;;;;;5051708;28;20477;-75
2022/05/08 08:06:01;;;;;;;17.27;12.85;;;;;;;;;;5051166;28;20552;-77
2022/05/08 08:08:27;;;;;;;17.52;13.40;;;;;;;;;;5051050;28;20108;-77
2022/05/08 08:10:56;;;;;;;14.85;11.27;;;;;;;;;;5051957;28;20056;-78
2022/05/08 08:13:24;;;;;;;19.25;11.23;;;;;;;;;;5052501;28;20059;-76
2022/05/08 08:15:49;;;;;;;22.65;12.27;;;;;;;;;;5052358;28;20408;-78
2022/05/08 08:18:18;;;;;;;19.10;11.27;;;;;;;;;;5050706;28;20207;-79
2022/05/08 08:20:44;;;;;;;18.58;12.90;;;;;;;;;;5050807;28;20025;-78
2022/05/08 08:23:10;;;;;;;12.77;9.32;;;;;;;;;;5051890;28;20061;-76
2022/05/08 08:25:37;;;;;;;16.23;10.23;;;;;;;;;;5051213;28;20025;-79
2022/05/08 08:28:03;;;;;;;14.50;10.40;;;;;;;;;;5050070;28;20495;-77
2022/05/08 08:30:29;;;;;;;15.48;10.90;;;;;;;;;;5050373;28;20029;-78
2022/05/08 08:32:55;;;;;;;15.80;10.23;;;;;;;;;;5051846;28;20060;-78
2022/05/08 08:35:20;;;;;;;16.98;9.75;;;;;;;;;;5034532;28;20025;-78
2022/05/08 08:37:46;;;;;;;15.50;11.55;;;;;;;;;;5051653;28;20369;-79
2022/05/08 08:40:12;;;;;;;16.20;12.48;;;;;;;;;;5051620;28;20064;-76
2022/05/08 08:42:41;;;;;;;14.20;11.27;;;;;;;;;;5049968;28;20028;-79
2022/05/08 08:47:58;;;;;;;20.13;11.48;;;;;;;;;;5052052;28;20031;-77
2022/05/08 08:50:26;;;;;;;16.40;11.25;;;;;;;;;;5034257;28;20055;-78
2022/05/08 08:52:58;;;;;;;15.32;11.05;;;;;;;;;;5052586;28;20021;-79
2022/05/08 08:55:24;;;;;;;20.60;12.60;;;;;;;;;;5041694;28;20118;-78
2022/05/08 08:57:50;;;;;;;20.92;12.30;;;;;;;;;;5051890;28;20079;-78
2022/05/08 09:00:18;;;;;;;17.08;11.60;;;;;;;;;;5067790;28;20029;-78
2022/05/08 09:02:44;;;;;;;13.98;11.35;;;;;;;;;;5051843;28;20391;-80
2022/05/08 09:05:10;;;;;;;15.20;10.77;;;;;;;;;;5051858;28;20032;-78
2022/05/08 09:07:50;;;;;;;13.05;10.95;;;;;;;;;;5067849;28;20132;-78
2022/05/08 09:10:20;;;;;;;16.60;10.68;;;;;;;;;;5067220;28;20033;-79
2022/05/08 09:12:51;;;;;;;16.33;11.35;;;;;;;;;;5051537;28;20025;-77
2022/05/08 09:15:27;;;;;;;22.42;11.93;;;;;;;;;;5051787;28;20055;-79
2022/05/08 09:18:10;;;;;;;16.02;10.57;;;;;;;;;;5049901;28;20091;-79
2022/05/08 09:20:43;;;;;;;14.90;10.10;;;;;;;;;;5066293;28;20032;-77
2022/05/08 09:23:19;;;;;;;12.23;8.93;;;;;;;;;;5050803;28;20028;-79
2022/05/08 09:25:48;;;;;;;13.18;8.63;;;;;;;;;;5051007;28;20377;-78
2022/05/08 09:28:21;;;;;;;10.82;8.00;;;;;;;;;;5051933;28;20017;-77
2022/05/08 09:31:12;;;;;;;9.02;6.68;;;;;;;;;;5051168;28;20108;-78
2022/05/08 09:33:40;;;;;;;12.98;9.20;;;;;;;;;;5062446;28;20040;-79
2022/05/08 09:36:08;;;;;;;9.88;8.32;;;;;;;;;;5070973;28;20036;-78
2022/05/08 09:38:54;;;;;;;11.48;8.38;;;;;;;;;;5070874;28;20458;-76
2022/05/08 09:41:20;;;;;;;11.25;8.65;;;;;;;;;;5071310;28;20039;-77
2022/05/08 09:43:46;;;;;;;11.82;8.70;;;;;;;;;;5071728;28;20381;-77
2022/05/08 09:46:12;;;;;;;14.95;8.13;;;;;;;;;;5071373;28;20036;-78
2022/05/08 09:48:38;;;;;;;11.50;7.15;;;;;;;;;;5052550;28;20020;-79
2022/05/08 09:51:11;;;;;;;12.50;6.95;;;;;;;;;;5070526;28;20039;-80
2022/05/08 09:53:39;;;;;;;16.55;7.95;;;;;;;;;;5071171;28;20036;-78
2022/05/08 09:56:10;;;;;;;10.43;5.97;;;;;;;;;;5074620;28;20437;-77
2022/05/08 09:58:40;;;;;;;9.13;6.45;;;;;;;;;;5056851;28;20420;-77
2022/05/08 10:01:07;;;;;;;13.07;6.88;;;;;;;;;;5056459;28;20037;-78
2022/05/08 10:03:33;;;;;;;10.18;6.75;;;;;;;;;;5073177;28;20020;-78
2022/05/08 10:06:02;;;;;;;12.07;5.85;;;;;;;;;;5056976;28;20024;-78
2022/05/08 10:08:35;;;;;;;7.97;5.65;;;;;;;;;;5075119;28;20063;-78
2022/05/08 10:16:45;;;;;;;6.05;4.75;;;;;;;;;;5074001;28;20262;-77
2022/05/08 10:19:21;;;;;;;7.55;4.07;;;;;;;;;;5056064;28;20714;-77
2022/05/08 10:21:55;;;;;;;8.05;4.93;;;;;;;;;;5055728;28;20021;-79
2022/05/08 10:24:34;;;;;;;7.55;5.20;;;;;;;;;;5056258;28;20027;-77
2022/05/08 10:27:21;;;;;;;6.00;4.75;;;;;;;;;;5073117;28;20077;-78
2022/05/08 10:29:50;;;;;;;7.07;4.72;;;;;;;;;;5056322;28;20028;-78
2022/05/08 10:32:46;;;;;;;8.15;4.25;;;;;;;;;;5055928;28;20096;-77
2022/05/08 10:35:14;;;;;;;7.72;3.58;;;;;;;;;;5069690;28;20048;-80
2022/05/08 10:37:41;;;;;;;7.60;3.65;;;;;;;;;;5072770;28;20024;-80
2022/05/08 10:40:27;;;;;;;9.73;4.25;;;;;;;;;;5056375;28;20333;-77
2022/05/08 10:42:58;;;;;;;10.05;5.10;;;;;;;;;;5066144;28;20055;-81
2022/05/08 10:45:30;;;;;;;7.75;5.07;;;;;;;;;;5073892;28;20468;-77
2022/05/08 10:47:57;;;;;;;10.02;4.90;;;;;;;;;;5073580;28;20024;-79
2022/05/08 10:50:23;;;;;;;7.70;4.90;;;;;;;;;;5073070;28;20396;-78
2022/05/08 10:52:49;;;;;;;7.35;4.53;;;;;;;;;;5073865;28;20033;-79
2022/05/08 10:55:16;;;;;;;5.50;3.60;;;;;;;;;;5055366;28;20032;-77
2022/05/08 10:57:47;;;;;;;5.03;3.60;;;;;;;;;;5055814;28;20021;-80
2022/05/08 11:00:24;;;;;;;6.05;3.78;;;;;;;;;;5072767;28;20056;-78
2022/05/08 11:02:57;;;;;;;7.47;3.47;;;;;;;;;;5073996;28;20033;-77
2022/05/08 11:05:26;;;;;;;4.78;3.17;;;;;;;;;;5055160;28;20122;-80
2022/05/08 11:08:12;;;;;;;6.40;3.58;;;;;;;;;;5073478;28;20127;-80
2022/05/08 11:10:42;;;;;;;4.60;2.85;;;;;;;;;;5055516;28;20025;-77
2022/05/08 11:13:18;;;;;;;5.18;3.65;;;;;;;;;;5072739;28;20024;-78
2022/05/08 11:15:48;;;;;;;4.75;3.47;;;;;;;;;;5046931;28;20036;-77
2022/05/08 11:18:23;;;;;;;6.10;3.70;;;;;;;;;;5053129;28;20037;-77
2022/05/08 11:20:50;;;;;;;4.18;3.63;;;;;;;;;;5052527;28;20462;-77
2022/05/08 11:23:23;;;;;;;11.07;3.97;;;;;;;;;;5051625;28;20422;-79
2022/05/08 11:26:09;;;;;;;3.70;3.13;;;;;;;;;;5052839;28;20505;-79
2022/05/08 11:28:45;;;;;;;7.47;3.53;;;;;;;;;;5053307;28;20499;-77
2022/05/08 11:31:16;;;;;;;7.43;3.45;;;;;;;;;;5053619;28;20024;-77
2022/05/08 11:36:28;;;;;;;4.07;3.17;;;;;;;;;;5053111;28;20261;-77
2022/05/08 11:38:59;;;;;;;4.63;3.88;;;;;;;;;;5052689;28;20469;-79
2022/05/08 11:41:28;;;;;;;5.03;3.60;;;;;;;;;;5051301;28;20024;-77
2022/05/08 11:44:17;;;;;;;7.05;3.88;;;;;;;;;;5052084;28;20078;-79
2022/05/08 11:46:55;;;;;;;4.65;3.53;;;;;;;;;;5034811;28;20430;-78
2022/05/08 11:49:24;;;;;;;7.43;3.42;;;;;;;;;;5051710;28;20033;-79
2022/05/08 11:51:54;;;;;;;4.68;3.20;;;;;;;;;;5051689;28;20112;-78
2022/05/08 11:54:35;;;;;;;7.85;3.72;;;;;;;;;;5051863;28;20024;-76
2022/05/08 11:57:17;;;;;;;10.63;3.65;;;;;;;;;;5052446;28;20463;-80
2022/05/08 11:59:48;;;;;;;8.38;4.07;;;;;;;;;;5051112;28;20052;-77
2022/05/08 12:02:16;;;;;;;6.05;3.50;;;;;;;;;;5050934;28;20025;-78
2022/05/08 12:04:52;;;;;;;5.30;3.72;;;;;;;;;;5052828;28;20036;-77
2022/05/08 12:07:17;;;;;;;12.38;4.80;;;;;;;;;;5051749;28;20384;-79
2022/05/08 12:09:47;;;;;;;7.78;3.95;;;;;;;;;;5052606;28;20032;-78
2022/05/08 12:12:27;;;;;;;6.82;4.20;;;;;;;;;;5052862;28;20384;-77
2022/05/08 12:14:59;;;;;;;6.35;4.35;;;;;;;;;;5052218;28;20035;-79
2022/05/08 12:17:27;;;;;;;8.32;3.90;;;;;;;;;;5050830;28;20029;-79
2022/05/08 12:19:58;;;;;;;6.93;3.80;;;;;;;;;;5052205;28;20036;-78
2022/05/08 12:22:28;;;;;;;4.93;3.72;;;;;;;;;;5052693;28;20337;-79
2022/05/08 12:24:55;;;;;;;5.60;3.60;;;;;;;;;;5053126;28;20115;-78
2022/05/08 12:27:21;;;;;;;8.95;3.80;;;;;;;;;;5050516;28;20044;-78
2022/05/08 12:29:47;;;;;;;11.27;4.22;;;;;;;;;;5050309;28;20028;-77
2022/05/08 12:32:14;;;;;;;3.95;3.55;;;;;;;;;;5051905;28;20062;-77
2022/05/08 12:34:41;;;;;;;11.73;4.38;;;;;;;;;;5051517;28;20045;-78
2022/05/08 12:37:10;;;;;;;7.93;4.43;;;;;;;;;;5052026;28;20036;-79
2022/05/08 12:39:36;;;;;;;6.07;3.67;;;;;;;;;;5050259;28;20037;-77
2022/05/08 12:42:02;;;;;;;10.05;4.07;;;;;;;;;;5050446;28;20032;-79
2022/05/08 12:44:27;;;;;;;8.48;3.65;;;;;;;;;;5051401;28;20071;-80
2022/05/08 12:46:53;;;;;;;7.43;3.65;;;;;;;;;;5033716;28;20037;-77
2022/05/08 12:49:19;;;;;;;7.25;3.60;;;;;;;;;;5049997;28;20481;-78
2022/05/08 12:51:45;;;;;;;9.27;4.00;;;;;;;;;;5051751;28;20033;-77
2022/05/08 12:54:14;;;;;;;5.88;3.67;;;;;;;;;;5033697;28;20058;-76
2022/05/08 12:56:44;;;;;;;5.20;4.10;;;;;;;;;;5051756;28;20028;-77
2022/05/08 13:01:54;;;;;;;5.30;4.20;;;;;;;;;;5052326;28;20423;-78
2022/05/08 13:04:24;;;;;;;6.20;3.92;;;;;;;;;;5052256;28;20029;-77
2022/05/08 13:06:53;;;;;;;4.05;3.63;;;;;;;;;;5034585;28;20029;-77
2022/05/08 13:09:19;;;;;;;6.57;4.25;;;;;;;;;;5050882;28;20036;-80
2022/05/08 13:11:48;;;;;;;6.82;4.38;;;;;;;;;;5033982;28;20033;-78
2022/05/08 13:14:14;;;;;;;5.55;4.13;;;;;;;;;;5051493;28;20111;-80
2022/05/08 13:16:40;;;;;;;4.97;3.97;;;;;;;;;;5051794;28;20115;-79
2022/05/08 13:19:05;;;;;;;13.52;5.13;;;;;;;;;;5050835;28;20029;-78
2022/05/08 13:21:32;;;;;;;8.80;4.80;;;;;;;;;;5051793;28;20051;-78
2022/05/08 13:23:58;;;;;;;5.70;3.88;;;;;;;;;;5033398;28;20028;-76
2022/05/08 13:26:24;;;;;;;4.95;3.45;;;;;;;;;;5050674;28;20103;-77
2022/05/08 13:28:49;;;;;;;5.88;3.78;;;;;;;;;;5053809;28;20021;-77
2022/05/08 13:31:15;;;;;;;15.27;4.10;;;;;;;;;;5057594;28;20029;-78
2022/05/08 13:33:41;;;;;;;10.77;4.43;;;;;;;;;;5055728;28;20153;-77
2022/05/08 13:36:08;;;;;;;8.68;5.05;;;;;;;;;;5055925;28;20583;-79
2022/05/08 13:38:34;;;;;;;6.05;4.38;;;;;;;;;;5039085;28;20628;-77
2022/05/08 13:41:00;;;;;;;8.23;4.32;;;;;;;;;;5057092;28;20016;-79
2022/05/08 13:43:26;;;;;;;4.93;3.70;;;;;;;;;;5056882;28;20024;-77
2022/05/08 13:45:53;;;;;;;7.30;4.40;;;;;;;;;;5039167;28;20034;-76
2022/05/08 13:48:19;;;;;;;5.78;4.47;;;;;;;;;;5056903;28;20485;-78
2022/05/08 13:50:44;;;;;;;8.27;4.05;;;;;;;;;;5039686;28;20147;-78
2022/05/08 13:53:11;;;;;;;10.35;4.22;;;;;;;;;;5056962;28;20139;-76
2022/05/08 13:55:39;;;;;;;5.07;3.70;;;;;;;;;;5038812;28;20086;-76
2022/05/08 13:58:05;;;;;;;4.75;3.67;;;;;;;;;;5056578;28;20036;-79
2022/05/08 14:00:35;;;;;;;7.47;4.10;;;;;;;;;;5056631;28;20029;-78
2022/05/08 14:03:02;;;;;;;10.77;5.32;;;;;;;;;;5056970;28;20534;-77
2022/05/08 14:05:28;;;;;;;7.82;4.30;;;;;;;;;;5039297;28;20388;-76
2022/05/08 14:07:54;;;;;;;8.13;4.22;;;;;;;;;;5056837;28;20032;-78
2022/05/08 14:10:21;;;;;;;8.52;4.40;;;;;;;;;;5039765;28;20032;-77
2022/05/08 14:12:46;;;;;;;6.43;4.47;;;;;;;;;;5039491;28;20033;-77
2022/05/08 14:15:13;;;;;;;10.00;4.68;;;;;;;;;;5039159;28;20354;-78
2022/05/08 14:17:39;;;;;;;6.47;3.88;;;;;;;;;;5057359;28;20530;-77
2022/05/08 14:20:06;;;;;;;5.03;3.92;;;;;;;;;;5057409;28;20534;-78
2022/05/08 14:22:32;;;;;;;8.60;4.28;;;;;;;;;;5056313;28;20029;-77
2022/05/08 14:25:02;;;;;;;8.05;4.03;;;;;;;;;;5057656;28;20013;-78
2022/05/08 14:27:28;;;;;;;7.00;3.95;;;;;;;;;;5039078;28;20033;-77
2022/05/08 14:29:56;;;;;;;4.78;4.10;;;;;;;;;;5039182;28;20025;-77
2022/05/08 14:37:52;;;;;;;6.68;5.10;;;;;;;;;;5057770;28;20135;-77
2022/05/08 14:40:20;;;;;;;8.23;4.55;;;;;;;;;;5053747;28;20032;-76
2022/05/08 14:42:46;;;;;;;8.98;4.22;;;;;;;;;;5053794;28;20044;-77
2022/05/08 14:45:11;;;;;;;9.02;3.80;;;;;;;;;;5053318;28;20040;-77
2022/05/08 14:47:39;;;;;;;7.70;4.03;;;;;;;;;;5035452;28;20116;-77
2022/05/08 14:50:06;;;;;;;4.90;3.35;;;;;;;;;;5053643;28;20064;-78
2022/05/08 14:52:31;;;;;;;7.38;4.15;;;;;;;;;;5052150;28;20052;-79
2022/05/08 14:54:58;;;;;;;7.05;4.53;;;;;;;;;;5035175;28;20021;-78
2022/05/08 14:57:23;;;;;;;9.75;4.45;;;;;;;;;;5051570;28;20028;-79
2022/05/08 14:59:49;;;;;;;7.40;5.00;;;;;;;;;;5034591;28;20404;-78
2022/05/08 15:02:14;;;;;;;7.60;4.75;;;;;;;;;;5052934;28;20198;-78
2022/05/08 15:04:40;;;;;;;8.45;4.85;;;;;;;;;;5035709;28;20025;-77
2022/05/08 15:07:05;;;;;;;8.00;5.03;;;;;;;;;;5053461;28;20082;-78